sensor_id;sensor_type;location;lat;lon;timestamp;temperature;humidity
27200;DHT22;14714;48.106;11.546;2022-07-24T00:01:32;20.00;99.90
27200;DHT22;14714;48.106;11.546;2022-07-24T00:03:58;20.00;99.90
27200;DHT22;14714;48.106;11.546;2022-07-24T00:06:25;20.00;99.90
27200;DHT22;14714;48.106;11.546;2022-07-24T00:08:52;20.00;99.90
27200;DHT22;14714;48.106;11.546;2022-07-24T00:11:19;20.00;99.90
27200;DHT22;14714;48.106;11.546;2022-07-24T00:13:46;19.90;99.90
27200;DHT22;14714;48.106;11.546;2022-07-24T00:16:13;19.90;99.90
27200;DHT22;14714;48.106;11.546;2022-07-24T00:18:40;19.90;99.90
27200;DHT22;14714;48.106;11.546;2022-07-24T00:21:07;19.90;99.90
27200;DHT22;14714;48.106;11.546;2022-07-24T00:23:34;19.90;99.90
27200;DHT22;14714;48.106;11.546;2022-07-24T00:26:01;19.80;99.90
27200;DHT22;14714;48.106;11.546;2022-07-24T00:28:28;19.80;99.90
27200;DHT22;14714;48.106;11.546;2022-07-24T00:30:55;19.80;99.90
27200;DHT22;14714;48.106;11.546;2022-07-24T00:33:22;19.80;99.90
27200;DHT22;14714;48.106;11.546;2022-07-24T00:35:49;19.80;99.90
27200;DHT22;14714;48.106;11.546;2022-07-24T00:38:16;19.80;99.90
27200;DHT22;14714;48.106;11.546;2022-07-24T00:40:42;19.80;99.90
27200;DHT22;14714;48.106;11.546;2022-07-24T00:43:10;19.80;99.90
27200;DHT22;14714;48.106;11.546;2022-07-24T00:45:36;19.80;99.90
27200;DHT22;14714;48.106;11.546;2022-07-24T00:48:05;19.80;99.90
27200;DHT22;14714;48.106;11.546;2022-07-24T00:50:34;19.80;99.90
27200;DHT22;14714;48.106;11.546;2022-07-24T00:53:01;19.80;99.90
27200;DHT22;14714;48.106;11.546;2022-07-24T00:55:28;19.80;99.90
27200;DHT22;14714;48.106;11.546;2022-07-24T00:57:55;19.80;99.90
27200;DHT22;14714;48.106;11.546;2022-07-24T01:00:23;19.80;99.90
27200;DHT22;14714;48.106;11.546;2022-07-24T01:02:50;19.80;99.90
27200;DHT22;14714;48.106;11.546;2022-07-24T01:05:18;19.80;99.90
27200;DHT22;14714;48.106;11.546;2022-07-24T01:07:45;19.80;99.90
27200;DHT22;14714;48.106;11.546;2022-07-24T01:10:13;19.80;99.90
27200;DHT22;14714;48.106;11.546;2022-07-24T01:12:41;19.80;99.90
27200;DHT22;14714;48.106;11.546;2022-07-24T01:15:10;19.80;99.90
27200;DHT22;14714;48.106;11.546;2022-07-24T01:17:40;19.80;99.90
27200;DHT22;14714;48.106;11.546;2022-07-24T01:20:09;19.80;99.90
27200;DHT22;14714;48.106;11.546;2022-07-24T01:22:36;19.80;99.90
27200;DHT22;14714;48.106;11.546;2022-07-24T01:25:03;19.80;99.90
27200;DHT22;14714;48.106;11.546;2022-07-24T01:27:30;19.80;99.90
27200;DHT22;14714;48.106;11.546;2022-07-24T01:29:57;19.80;99.90
27200;DHT22;14714;48.106;11.546;2022-07-24T01:32:24;19.80;99.90
27200;DHT22;14714;48.106;11.546;2022-07-24T01:34:51;19.70;99.90
27200;DHT22;14714;48.106;11.546;2022-07-24T01:37:18;19.70;99.90
27200;DHT22;14714;48.106;11.546;2022-07-24T01:39:45;19.70;99.90
27200;DHT22;14714;48.106;11.546;2022-07-24T01:42:12;19.70;99.90
27200;DHT22;14714;48.106;11.546;2022-07-24T01:44:38;19.70;99.90
27200;DHT22;14714;48.106;11.546;2022-07-24T01:47:05;19.70;99.90
27200;DHT22;14714;48.106;11.546;2022-07-24T01:49:32;19.70;99.90
27200;DHT22;14714;48.106;11.546;2022-07-24T01:51:59;19.70;99.90
27200;DHT22;14714;48.106;11.546;2022-07-24T01:54:26;19.70;99.90
27200;DHT22;14714;48.106;11.546;2022-07-24T01:56:52;19.70;99.90
27200;DHT22;14714;48.106;11.546;2022-07-24T01:59:19;19.70;99.90
27200;DHT22;14714;48.106;11.546;2022-07-24T02:01:46;19.60;99.90
27200;DHT22;14714;48.106;11.546;2022-07-24T02:04:13;19.60;99.90
27200;DHT22;14714;48.106;11.546;2022-07-24T02:06:40;19.60;99.90
27200;DHT22;14714;48.106;11.546;2022-07-24T02:09:07;19.60;99.90
27200;DHT22;14714;48.106;11.546;2022-07-24T02:11:34;19.60;99.90
27200;DHT22;14714;48.106;11.546;2022-07-24T02:14:01;19.60;99.90
27200;DHT22;14714;48.106;11.546;2022-07-24T02:16:28;19.50;99.90
27200;DHT22;14714;48.106;11.546;2022-07-24T02:18:55;19.50;99.90
27200;DHT22;14714;48.106;11.546;2022-07-24T02:21:22;19.50;99.90
27200;DHT22;14714;48.106;11.546;2022-07-24T02:23:49;19.40;99.90
27200;DHT22;14714;48.106;11.546;2022-07-24T02:26:16;19.40;99.90
27200;DHT22;14714;48.106;11.546;2022-07-24T02:28:42;19.40;99.90
27200;DHT22;14714;48.106;11.546;2022-07-24T02:31:09;19.40;99.90
27200;DHT22;14714;48.106;11.546;2022-07-24T02:33:36;19.30;99.90
27200;DHT22;14714;48.106;11.546;2022-07-24T02:36:03;19.30;99.90
27200;DHT22;14714;48.106;11.546;2022-07-24T02:38:30;19.20;99.90
27200;DHT22;14714;48.106;11.546;2022-07-24T02:40:57;19.20;99.90
27200;DHT22;14714;48.106;11.546;2022-07-24T02:43:24;19.10;99.90
27200;DHT22;14714;48.106;11.546;2022-07-24T02:45:53;19.10;99.90
27200;DHT22;14714;48.106;11.546;2022-07-24T02:48:20;19.10;99.90
27200;DHT22;14714;48.106;11.546;2022-07-24T02:50:47;19.00;99.90
27200;DHT22;14714;48.106;11.546;2022-07-24T02:53:14;19.00;99.90
27200;DHT22;14714;48.106;11.546;2022-07-24T02:55:41;19.00;99.90
27200;DHT22;14714;48.106;11.546;2022-07-24T02:58:08;18.90;99.90
27200;DHT22;14714;48.106;11.546;2022-07-24T03:00:35;18.90;99.90
27200;DHT22;14714;48.106;11.546;2022-07-24T03:03:02;18.80;99.90
27200;DHT22;14714;48.106;11.546;2022-07-24T03:05:29;18.80;99.90
27200;DHT22;14714;48.106;11.546;2022-07-24T03:07:56;18.80;99.90
27200;DHT22;14714;48.106;11.546;2022-07-24T03:10:23;18.80;99.90
27200;DHT22;14714;48.106;11.546;2022-07-24T03:12:50;18.70;99.90
27200;DHT22;14714;48.106;11.546;2022-07-24T03:15:17;18.70;99.90
27200;DHT22;14714;48.106;11.546;2022-07-24T03:17:49;18.70;99.90
27200;DHT22;14714;48.106;11.546;2022-07-24T03:20:16;18.60;99.90
27200;DHT22;14714;48.106;11.546;2022-07-24T03:22:44;18.60;99.90
27200;DHT22;14714;48.106;11.546;2022-07-24T03:25:11;18.50;99.90
27200;DHT22;14714;48.106;11.546;2022-07-24T03:27:38;18.50;99.90
27200;DHT22;14714;48.106;11.546;2022-07-24T03:30:06;18.40;99.90
27200;DHT22;14714;48.106;11.546;2022-07-24T03:32:33;18.40;99.90
27200;DHT22;14714;48.106;11.546;2022-07-24T03:35:00;18.30;99.90
27200;DHT22;14714;48.106;11.546;2022-07-24T03:37:27;18.30;99.90
27200;DHT22;14714;48.106;11.546;2022-07-24T03:39:54;18.30;99.90
27200;DHT22;14714;48.106;11.546;2022-07-24T03:42:21;18.20;99.90
27200;DHT22;14714;48.106;11.546;2022-07-24T03:44:48;18.20;99.90
27200;DHT22;14714;48.106;11.546;2022-07-24T03:47:15;18.10;99.90
27200;DHT22;14714;48.106;11.546;2022-07-24T03:49:41;18.10;99.90
27200;DHT22;14714;48.106;11.546;2022-07-24T03:54:42;18.00;99.90
27200;DHT22;14714;48.106;11.546;2022-07-24T03:57:09;18.00;99.90
27200;DHT22;14714;48.106;11.546;2022-07-24T03:59:36;17.90;99.90
27200;DHT22;14714;48.106;11.546;2022-07-24T04:02:03;17.90;99.90
27200;DHT22;14714;48.106;11.546;2022-07-24T04:04:30;17.90;99.90
27200;DHT22;14714;48.106;11.546;2022-07-24T04:06:56;17.90;99.90
27200;DHT22;14714;48.106;11.546;2022-07-24T04:09:23;17.80;99.90
27200;DHT22;14714;48.106;11.546;2022-07-24T04:11:58;17.80;99.90
27200;DHT22;14714;48.106;11.546;2022-07-24T04:14:25;17.80;99.90
27200;DHT22;14714;48.106;11.546;2022-07-24T04:16:52;17.90;99.90
27200;DHT22;14714;48.106;11.546;2022-07-24T04:19:18;17.90;99.90
27200;DHT22;14714;48.106;11.546;2022-07-24T04:21:45;17.90;99.90
27200;DHT22;14714;48.106;11.546;2022-07-24T04:24:12;17.90;99.90
27200;DHT22;14714;48.106;11.546;2022-07-24T04:26:39;18.10;99.90
27200;DHT22;14714;48.106;11.546;2022-07-24T04:29:06;18.40;99.90
27200;DHT22;14714;48.106;11.546;2022-07-24T04:31:34;18.80;99.90
27200;DHT22;14714;48.106;11.546;2022-07-24T04:34:01;19.10;99.90
27200;DHT22;14714;48.106;11.546;2022-07-24T04:36:27;19.60;99.90
27200;DHT22;14714;48.106;11.546;2022-07-24T04:38:54;20.10;99.90
27200;DHT22;14714;48.106;11.546;2022-07-24T04:41:21;20.70;99.90
27200;DHT22;14714;48.106;11.546;2022-07-24T04:43:48;21.40;99.90
27200;DHT22;14714;48.106;11.546;2022-07-24T04:46:17;22.20;99.90
27200;DHT22;14714;48.106;11.546;2022-07-24T04:48:44;22.90;99.90
27200;DHT22;14714;48.106;11.546;2022-07-24T04:51:11;23.60;99.90
27200;DHT22;14714;48.106;11.546;2022-07-24T04:53:37;24.30;99.90
27200;DHT22;14714;48.106;11.546;2022-07-24T04:56:04;24.90;99.90
27200;DHT22;14714;48.106;11.546;2022-07-24T04:58:31;25.50;99.90
27200;DHT22;14714;48.106;11.546;2022-07-24T05:00:58;26.00;99.90
27200;DHT22;14714;48.106;11.546;2022-07-24T05:03:25;26.60;99.90
27200;DHT22;14714;48.106;11.546;2022-07-24T05:05:52;27.30;99.90
27200;DHT22;14714;48.106;11.546;2022-07-24T05:08:19;27.90;99.80
27200;DHT22;14714;48.106;11.546;2022-07-24T05:10:46;28.50;96.20
27200;DHT22;14714;48.106;11.546;2022-07-24T05:13:13;29.00;95.00
27200;DHT22;14714;48.106;11.546;2022-07-24T05:15:39;29.20;92.20
27200;DHT22;14714;48.106;11.546;2022-07-24T05:18:06;29.00;92.80
27200;DHT22;14714;48.106;11.546;2022-07-24T05:20:33;29.30;91.90
27200;DHT22;14714;48.106;11.546;2022-07-24T05:23:00;29.80;90.30
27200;DHT22;14714;48.106;11.546;2022-07-24T05:25:27;30.00;86.10
27200;DHT22;14714;48.106;11.546;2022-07-24T05:27:53;30.30;84.50
27200;DHT22;14714;48.106;11.546;2022-07-24T05:30:20;30.70;82.30
27200;DHT22;14714;48.106;11.546;2022-07-24T05:32:47;31.20;77.00
27200;DHT22;14714;48.106;11.546;2022-07-24T05:35:14;31.70;74.70
27200;DHT22;14714;48.106;11.546;2022-07-24T05:37:53;32.20;71.20
27200;DHT22;14714;48.106;11.546;2022-07-24T05:40:20;32.70;68.10
27200;DHT22;14714;48.106;11.546;2022-07-24T05:42:47;33.30;65.10
27200;DHT22;14714;48.106;11.546;2022-07-24T05:45:14;33.80;61.90
27200;DHT22;14714;48.106;11.546;2022-07-24T05:47:41;34.20;60.00
27200;DHT22;14714;48.106;11.546;2022-07-24T05:50:10;34.60;58.00
27200;DHT22;14714;48.106;11.546;2022-07-24T05:52:38;35.00;55.50
27200;DHT22;14714;48.106;11.546;2022-07-24T05:55:05;35.50;54.80
27200;DHT22;14714;48.106;11.546;2022-07-24T05:57:32;36.00;53.00
27200;DHT22;14714;48.106;11.546;2022-07-24T05:59:59;36.40;50.70
27200;DHT22;14714;48.106;11.546;2022-07-24T06:02:27;36.80;49.30
27200;DHT22;14714;48.106;11.546;2022-07-24T06:04:53;37.10;47.50
27200;DHT22;14714;48.106;11.546;2022-07-24T06:07:20;37.50;46.40
27200;DHT22;14714;48.106;11.546;2022-07-24T06:09:47;37.80;45.50
27200;DHT22;14714;48.106;11.546;2022-07-24T06:12:14;38.20;44.20
27200;DHT22;14714;48.106;11.546;2022-07-24T06:14:42;38.50;43.70
27200;DHT22;14714;48.106;11.546;2022-07-24T06:17:09;38.90;42.70
27200;DHT22;14714;48.106;11.546;2022-07-24T06:19:36;39.10;41.60
27200;DHT22;14714;48.106;11.546;2022-07-24T06:22:03;39.40;41.50
27200;DHT22;14714;48.106;11.546;2022-07-24T06:24:29;39.60;40.80
27200;DHT22;14714;48.106;11.546;2022-07-24T06:26:56;39.80;39.40
27200;DHT22;14714;48.106;11.546;2022-07-24T06:29:39;40.00;39.10
27200;DHT22;14714;48.106;11.546;2022-07-24T06:32:06;40.30;38.70
27200;DHT22;14714;48.106;11.546;2022-07-24T06:34:33;40.60;37.90
27200;DHT22;14714;48.106;11.546;2022-07-24T06:36:59;41.00;37.20
27200;DHT22;14714;48.106;11.546;2022-07-24T06:39:26;41.10;36.10
27200;DHT22;14714;48.106;11.546;2022-07-24T06:41:53;41.30;36.00
27200;DHT22;14714;48.106;11.546;2022-07-24T06:44:20;41.40;35.00
27200;DHT22;14714;48.106;11.546;2022-07-24T06:46:48;41.60;34.20
27200;DHT22;14714;48.106;11.546;2022-07-24T06:49:15;42.00;34.40
27200;DHT22;14714;48.106;11.546;2022-07-24T06:51:42;42.30;33.30
27200;DHT22;14714;48.106;11.546;2022-07-24T06:54:09;42.60;32.90
27200;DHT22;14714;48.106;11.546;2022-07-24T06:56:35;42.90;32.10
27200;DHT22;14714;48.106;11.546;2022-07-24T06:59:02;43.00;31.90
27200;DHT22;14714;48.106;11.546;2022-07-24T07:01:29;43.10;31.40
27200;DHT22;14714;48.106;11.546;2022-07-24T07:03:56;43.30;30.50
27200;DHT22;14714;48.106;11.546;2022-07-24T07:06:23;43.50;30.80
27200;DHT22;14714;48.106;11.546;2022-07-24T07:08:50;43.70;30.30
27200;DHT22;14714;48.106;11.546;2022-07-24T07:11:17;43.90;29.90
27200;DHT22;14714;48.106;11.546;2022-07-24T07:13:43;44.10;30.40
27200;DHT22;14714;48.106;11.546;2022-07-24T07:16:10;44.40;29.90
27200;DHT22;14714;48.106;11.546;2022-07-24T07:18:37;44.80;29.60
27200;DHT22;14714;48.106;11.546;2022-07-24T07:21:06;44.90;29.40
27200;DHT22;14714;48.106;11.546;2022-07-24T07:23:33;45.20;28.90
27200;DHT22;14714;48.106;11.546;2022-07-24T07:26:00;45.50;27.70
27200;DHT22;14714;48.106;11.546;2022-07-24T07:28:27;45.50;27.90
27200;DHT22;14714;48.106;11.546;2022-07-24T07:30:54;45.80;27.70
27200;DHT22;14714;48.106;11.546;2022-07-24T07:33:21;46.10;27.40
27200;DHT22;14714;48.106;11.546;2022-07-24T07:35:47;46.30;26.20
27200;DHT22;14714;48.106;11.546;2022-07-24T07:38:16;46.30;26.40
27200;DHT22;14714;48.106;11.546;2022-07-24T07:40:49;46.20;26.70
27200;DHT22;14714;48.106;11.546;2022-07-24T07:43:16;46.20;26.70
27200;DHT22;14714;48.106;11.546;2022-07-24T07:45:43;46.20;26.20
27200;DHT22;14714;48.106;11.546;2022-07-24T07:48:10;46.10;25.90
27200;DHT22;14714;48.106;11.546;2022-07-24T07:50:37;45.90;25.80
27200;DHT22;14714;48.106;11.546;2022-07-24T07:53:04;45.90;26.40
27200;DHT22;14714;48.106;11.546;2022-07-24T07:55:30;46.10;26.50
27200;DHT22;14714;48.106;11.546;2022-07-24T07:57:57;46.30;25.80
27200;DHT22;14714;48.106;11.546;2022-07-24T08:00:33;46.20;26.00
27200;DHT22;14714;48.106;11.546;2022-07-24T08:03:00;46.00;26.10
27200;DHT22;14714;48.106;11.546;2022-07-24T08:05:28;45.40;26.80
27200;DHT22;14714;48.106;11.546;2022-07-24T08:07:55;45.00;27.20
27200;DHT22;14714;48.106;11.546;2022-07-24T08:10:22;45.10;26.20
27200;DHT22;14714;48.106;11.546;2022-07-24T08:12:49;45.40;25.90
27200;DHT22;14714;48.106;11.546;2022-07-24T08:15:15;45.70;26.00
27200;DHT22;14714;48.106;11.546;2022-07-24T08:17:44;45.70;25.70
27200;DHT22;14714;48.106;11.546;2022-07-24T08:20:11;45.60;26.20
27200;DHT22;14714;48.106;11.546;2022-07-24T08:22:38;45.80;26.70
27200;DHT22;14714;48.106;11.546;2022-07-24T08:25:05;46.00;26.10
27200;DHT22;14714;48.106;11.546;2022-07-24T08:27:35;46.20;25.20
27200;DHT22;14714;48.106;11.546;2022-07-24T08:30:05;45.80;25.10
27200;DHT22;14714;48.106;11.546;2022-07-24T08:32:32;45.90;25.30
27200;DHT22;14714;48.106;11.546;2022-07-24T08:34:59;46.10;25.50
27200;DHT22;14714;48.106;11.546;2022-07-24T08:37:26;46.40;25.40
27200;DHT22;14714;48.106;11.546;2022-07-24T08:39:53;46.80;24.80
27200;DHT22;14714;48.106;11.546;2022-07-24T08:42:21;47.10;24.40
27200;DHT22;14714;48.106;11.546;2022-07-24T08:44:48;46.80;24.20
27200;DHT22;14714;48.106;11.546;2022-07-24T08:47:15;45.60;25.50
27200;DHT22;14714;48.106;11.546;2022-07-24T08:49:44;45.20;25.40
27200;DHT22;14714;48.106;11.546;2022-07-24T08:52:14;44.80;25.60
27200;DHT22;14714;48.106;11.546;2022-07-24T08:54:42;44.80;25.50
27200;DHT22;14714;48.106;11.546;2022-07-24T08:57:08;44.80;26.00
27200;DHT22;14714;48.106;11.546;2022-07-24T08:59:35;44.80;25.70
27200;DHT22;14714;48.106;11.546;2022-07-24T09:02:02;45.00;26.30
27200;DHT22;14714;48.106;11.546;2022-07-24T09:04:41;45.10;25.70
27200;DHT22;14714;48.106;11.546;2022-07-24T09:07:11;44.90;25.70
27200;DHT22;14714;48.106;11.546;2022-07-24T09:09:39;44.40;26.20
27200;DHT22;14714;48.106;11.546;2022-07-24T09:12:14;44.50;26.60
27200;DHT22;14714;48.106;11.546;2022-07-24T09:14:46;44.40;26.10
27200;DHT22;14714;48.106;11.546;2022-07-24T09:17:16;44.50;26.40
27200;DHT22;14714;48.106;11.546;2022-07-24T09:19:51;44.70;25.80
27200;DHT22;14714;48.106;11.546;2022-07-24T09:22:36;43.90;26.10
27200;DHT22;14714;48.106;11.546;2022-07-24T09:25:13;42.30;27.20
27200;DHT22;14714;48.106;11.546;2022-07-24T09:28:00;40.80;29.30
27200;DHT22;14714;48.106;11.546;2022-07-24T09:30:34;39.30;32.00
27200;DHT22;14714;48.106;11.546;2022-07-24T09:33:15;38.10;33.80
27200;DHT22;14714;48.106;11.546;2022-07-24T09:35:51;37.60;35.50
27200;DHT22;14714;48.106;11.546;2022-07-24T09:38:24;38.30;34.70
27200;DHT22;14714;48.106;11.546;2022-07-24T09:40:54;39.00;33.00
27200;DHT22;14714;48.106;11.546;2022-07-24T09:43:29;39.30;31.70
27200;DHT22;14714;48.106;11.546;2022-07-24T09:46:09;39.40;32.00
27200;DHT22;14714;48.106;11.546;2022-07-24T09:48:50;39.40;32.20
27200;DHT22;14714;48.106;11.546;2022-07-24T09:51:18;39.60;32.00
27200;DHT22;14714;48.106;11.546;2022-07-24T09:53:46;40.10;31.50
27200;DHT22;14714;48.106;11.546;2022-07-24T09:56:15;40.40;30.40
27200;DHT22;14714;48.106;11.546;2022-07-24T10:01:15;39.80;30.40
27200;DHT22;14714;48.106;11.546;2022-07-24T10:03:44;39.40;31.20
27200;DHT22;14714;48.106;11.546;2022-07-24T10:06:18;39.20;32.40
27200;DHT22;14714;48.106;11.546;2022-07-24T10:08:48;38.50;32.90
27200;DHT22;14714;48.106;11.546;2022-07-24T10:11:15;37.90;32.60
27200;DHT22;14714;48.106;11.546;2022-07-24T10:13:43;37.10;35.70
27200;DHT22;14714;48.106;11.546;2022-07-24T10:19:06;35.70;36.80
27200;DHT22;14714;48.106;11.546;2022-07-24T10:21:36;35.70;37.20
27200;DHT22;14714;48.106;11.546;2022-07-24T10:26:47;37.00;35.50
27200;DHT22;14714;48.106;11.546;2022-07-24T10:29:22;37.70;34.60
27200;DHT22;14714;48.106;11.546;2022-07-24T10:31:52;38.00;34.30
27200;DHT22;14714;48.106;11.546;2022-07-24T10:40:36;37.10;35.50
27200;DHT22;14714;48.106;11.546;2022-07-24T10:45:44;37.70;34.80
27200;DHT22;14714;48.106;11.546;2022-07-24T10:59:02;37.70;33.40
27200;DHT22;14714;48.106;11.546;2022-07-24T11:01:40;37.70;33.80
27200;DHT22;14714;48.106;11.546;2022-07-24T11:06:48;37.50;34.20
27200;DHT22;14714;48.106;11.546;2022-07-24T11:09:17;37.50;33.40
27200;DHT22;14714;48.106;11.546;2022-07-24T11:17:37;36.90;34.40
27200;DHT22;14714;48.106;11.546;2022-07-24T11:20:15;36.30;36.00
27200;DHT22;14714;48.106;11.546;2022-07-24T11:22:51;35.50;36.20
27200;DHT22;14714;48.106;11.546;2022-07-24T11:25:22;34.40;37.60
27200;DHT22;14714;48.106;11.546;2022-07-24T11:30:19;33.90;39.30
27200;DHT22;14714;48.106;11.546;2022-07-24T11:32:46;34.10;39.60
27200;DHT22;14714;48.106;11.546;2022-07-24T11:35:13;34.40;38.90
27200;DHT22;14714;48.106;11.546;2022-07-24T11:37:41;34.60;39.60
27200;DHT22;14714;48.106;11.546;2022-07-24T11:40:14;34.80;38.40
27200;DHT22;14714;48.106;11.546;2022-07-24T11:42:41;34.80;38.00
27200;DHT22;14714;48.106;11.546;2022-07-24T11:45:09;34.90;38.40
27200;DHT22;14714;48.106;11.546;2022-07-24T11:47:36;35.10;37.90
27200;DHT22;14714;48.106;11.546;2022-07-24T11:50:05;35.30;37.30
27200;DHT22;14714;48.106;11.546;2022-07-24T11:52:34;35.60;37.30
27200;DHT22;14714;48.106;11.546;2022-07-24T11:55:09;35.80;34.90
27200;DHT22;14714;48.106;11.546;2022-07-24T11:57:45;35.90;36.00
27200;DHT22;14714;48.106;11.546;2022-07-24T12:00:32;36.00;37.00
27200;DHT22;14714;48.106;11.546;2022-07-24T12:03:00;35.80;34.70
27200;DHT22;14714;48.106;11.546;2022-07-24T12:05:33;35.60;35.40
27200;DHT22;14714;48.106;11.546;2022-07-24T12:08:02;35.20;36.40
27200;DHT22;14714;48.106;11.546;2022-07-24T12:10:29;35.10;37.50
27200;DHT22;14714;48.106;11.546;2022-07-24T12:12:56;34.90;37.10
27200;DHT22;14714;48.106;11.546;2022-07-24T12:15:26;34.70;38.50
27200;DHT22;14714;48.106;11.546;2022-07-24T12:18:07;34.30;38.00
27200;DHT22;14714;48.106;11.546;2022-07-24T12:20:39;33.90;38.20
27200;DHT22;14714;48.106;11.546;2022-07-24T12:23:11;33.60;39.20
27200;DHT22;14714;48.106;11.546;2022-07-24T12:25:39;33.20;39.60
27200;DHT22;14714;48.106;11.546;2022-07-24T12:28:12;32.80;40.10
27200;DHT22;14714;48.106;11.546;2022-07-24T12:30:41;32.50;40.80
27200;DHT22;14714;48.106;11.546;2022-07-24T12:33:24;32.10;41.30
27200;DHT22;14714;48.106;11.546;2022-07-24T12:36:11;31.70;43.00
27200;DHT22;14714;48.106;11.546;2022-07-24T12:38:41;31.40;43.80
27200;DHT22;14714;48.106;11.546;2022-07-24T12:41:16;31.00;44.30
27200;DHT22;14714;48.106;11.546;2022-07-24T12:43:59;30.70;44.60
27200;DHT22;14714;48.106;11.546;2022-07-24T12:46:37;30.60;45.80
27200;DHT22;14714;48.106;11.546;2022-07-24T12:49:11;30.70;44.30
27200;DHT22;14714;48.106;11.546;2022-07-24T12:51:52;30.80;43.30
27200;DHT22;14714;48.106;11.546;2022-07-24T12:54:24;30.80;43.70
27200;DHT22;14714;48.106;11.546;2022-07-24T12:56:54;30.70;43.80
27200;DHT22;14714;48.106;11.546;2022-07-24T12:59:27;30.80;44.80
27200;DHT22;14714;48.106;11.546;2022-07-24T13:02:02;31.00;44.40
27200;DHT22;14714;48.106;11.546;2022-07-24T13:04:30;31.10;44.00
27200;DHT22;14714;48.106;11.546;2022-07-24T13:06:58;31.30;43.60
27200;DHT22;14714;48.106;11.546;2022-07-24T13:09:27;31.60;43.20
27200;DHT22;14714;48.106;11.546;2022-07-24T13:11:55;31.70;42.80
27200;DHT22;14714;48.106;11.546;2022-07-24T13:14:24;31.80;41.70
27200;DHT22;14714;48.106;11.546;2022-07-24T13:16:52;31.80;40.80
27200;DHT22;14714;48.106;11.546;2022-07-24T13:19:20;31.80;41.00
27200;DHT22;14714;48.106;11.546;2022-07-24T13:21:48;31.80;41.60
27200;DHT22;14714;48.106;11.546;2022-07-24T13:24:16;31.70;41.30
27200;DHT22;14714;48.106;11.546;2022-07-24T13:26:43;31.60;42.10
27200;DHT22;14714;48.106;11.546;2022-07-24T13:29:11;31.50;42.10
27200;DHT22;14714;48.106;11.546;2022-07-24T13:31:39;31.50;42.50
27200;DHT22;14714;48.106;11.546;2022-07-24T13:34:07;31.60;43.10
27200;DHT22;14714;48.106;11.546;2022-07-24T13:36:37;31.60;42.50
27200;DHT22;14714;48.106;11.546;2022-07-24T13:39:06;31.60;42.50
27200;DHT22;14714;48.106;11.546;2022-07-24T13:41:34;31.60;41.90
27200;DHT22;14714;48.106;11.546;2022-07-24T13:44:02;31.60;42.50
27200;DHT22;14714;48.106;11.546;2022-07-24T13:46:30;31.60;42.80
27200;DHT22;14714;48.106;11.546;2022-07-24T13:49:03;31.60;42.10
27200;DHT22;14714;48.106;11.546;2022-07-24T13:51:30;31.60;42.30
27200;DHT22;14714;48.106;11.546;2022-07-24T13:53:57;31.60;41.80
27200;DHT22;14714;48.106;11.546;2022-07-24T13:56:24;31.50;42.10
27200;DHT22;14714;48.106;11.546;2022-07-24T13:58:51;31.40;42.30
27200;DHT22;14714;48.106;11.546;2022-07-24T14:01:18;31.30;42.90
27200;DHT22;14714;48.106;11.546;2022-07-24T14:03:59;31.20;43.10
27200;DHT22;14714;48.106;11.546;2022-07-24T14:06:45;31.10;43.30
27200;DHT22;14714;48.106;11.546;2022-07-24T14:09:12;31.10;42.90
27200;DHT22;14714;48.106;11.546;2022-07-24T14:11:39;31.10;42.10
27200;DHT22;14714;48.106;11.546;2022-07-24T14:14:07;31.10;42.50
27200;DHT22;14714;48.106;11.546;2022-07-24T14:16:35;31.00;41.80
27200;DHT22;14714;48.106;11.546;2022-07-24T14:19:04;31.00;42.00
27200;DHT22;14714;48.106;11.546;2022-07-24T14:21:31;31.00;42.30
27200;DHT22;14714;48.106;11.546;2022-07-24T14:24:00;31.10;42.20
27200;DHT22;14714;48.106;11.546;2022-07-24T14:26:28;31.10;42.90
27200;DHT22;14714;48.106;11.546;2022-07-24T14:28:55;31.20;42.40
27200;DHT22;14714;48.106;11.546;2022-07-24T14:31:21;31.10;42.20
27200;DHT22;14714;48.106;11.546;2022-07-24T14:33:48;31.00;42.60
27200;DHT22;14714;48.106;11.546;2022-07-24T14:36:15;31.00;43.60
27200;DHT22;14714;48.106;11.546;2022-07-24T14:38:42;30.90;42.50
27200;DHT22;14714;48.106;11.546;2022-07-24T14:41:09;30.90;43.20
27200;DHT22;14714;48.106;11.546;2022-07-24T14:43:35;30.80;42.50
27200;DHT22;14714;48.106;11.546;2022-07-24T14:46:03;30.70;42.50
27200;DHT22;14714;48.106;11.546;2022-07-24T14:48:30;30.60;43.90
27200;DHT22;14714;48.106;11.546;2022-07-24T14:50:57;30.50;44.50
27200;DHT22;14714;48.106;11.546;2022-07-24T14:53:23;30.40;44.30
27200;DHT22;14714;48.106;11.546;2022-07-24T14:55:50;30.20;44.20
27200;DHT22;14714;48.106;11.546;2022-07-24T14:58:17;30.10;46.70
27200;DHT22;14714;48.106;11.546;2022-07-24T15:00:44;30.10;45.80
27200;DHT22;14714;48.106;11.546;2022-07-24T15:03:11;30.00;46.30
27200;DHT22;14714;48.106;11.546;2022-07-24T15:05:37;29.90;47.40
27200;DHT22;14714;48.106;11.546;2022-07-24T15:08:04;29.90;45.70
27200;DHT22;14714;48.106;11.546;2022-07-24T15:10:31;29.90;45.90
27200;DHT22;14714;48.106;11.546;2022-07-24T15:12:58;29.80;45.90
27200;DHT22;14714;48.106;11.546;2022-07-24T15:15:25;29.80;45.50
27200;DHT22;14714;48.106;11.546;2022-07-24T15:17:57;29.80;45.20
27200;DHT22;14714;48.106;11.546;2022-07-24T15:20:23;29.80;45.40
27200;DHT22;14714;48.106;11.546;2022-07-24T15:22:50;29.80;46.50
27200;DHT22;14714;48.106;11.546;2022-07-24T15:25:17;29.80;46.70
27200;DHT22;14714;48.106;11.546;2022-07-24T15:27:44;29.70;46.20
27200;DHT22;14714;48.106;11.546;2022-07-24T15:30:17;29.60;44.30
27200;DHT22;14714;48.106;11.546;2022-07-24T15:32:52;29.60;45.00
27200;DHT22;14714;48.106;11.546;2022-07-24T15:35:19;29.70;45.80
27200;DHT22;14714;48.106;11.546;2022-07-24T15:37:46;29.70;47.20
27200;DHT22;14714;48.106;11.546;2022-07-24T15:40:13;29.70;48.40
27200;DHT22;14714;48.106;11.546;2022-07-24T15:42:40;29.70;48.50
27200;DHT22;14714;48.106;11.546;2022-07-24T15:45:07;29.70;49.90
27200;DHT22;14714;48.106;11.546;2022-07-24T15:47:34;29.60;49.90
27200;DHT22;14714;48.106;11.546;2022-07-24T15:50:01;29.60;50.30
27200;DHT22;14714;48.106;11.546;2022-07-24T15:52:28;29.50;48.60
27200;DHT22;14714;48.106;11.546;2022-07-24T15:54:55;29.40;47.10
27200;DHT22;14714;48.106;11.546;2022-07-24T15:57:23;29.30;47.60
27200;DHT22;14714;48.106;11.546;2022-07-24T15:59:50;29.30;47.00
27200;DHT22;14714;48.106;11.546;2022-07-24T16:02:17;29.30;46.90
27200;DHT22;14714;48.106;11.546;2022-07-24T16:04:45;29.20;46.60